Time;durP1;ratioP1;P1;durP2;ratioP2;P2;SDS_P1;SDS_P2;PMS_P1;PMS_P2;Temp;Humidity;BMP_temperature;BMP_pressure;BME280_temperature;BME280_humidity;BME280_pressure;Samples;Min_cycle;Max_cycle;Signal;HPM_P1;HPM_P2
2022/11/23 00:00:12;;;;;;;11.50;6.97;;;7.90;99.90;;;;;;5112251;28;20080;-70
2022/11/23 00:02:38;;;;;;;11.50;7.90;;;8.00;99.90;;;;;;5094122;28;20465;-69
2022/11/23 00:05:04;;;;;;;;;;;8.00;99.90;;;;;;5093166;28;20152;-69
2022/11/23 00:07:32;;;;;;;9.90;7.00;;;8.00;99.90;;;;;;5111426;28;19927;-70
2022/11/23 00:09:58;;;;;;;10.52;6.82;;;7.90;99.90;;;;;;5093172;28;20044;-70
2022/11/23 00:12:23;;;;;;;;;;;8.10;99.90;;;;;;5107807;28;20039;-69
2022/11/23 00:14:49;;;;;;;10.85;6.50;;;8.00;99.90;;;;;;5111469;28;20377;-69
2022/11/23 00:17:17;;;;;;;;;;;7.90;99.90;;;;;;5111966;28;20082;-69
2022/11/23 00:19:43;;;;;;;10.65;7.00;;;7.90;99.90;;;;;;5093551;28;20434;-69
2022/11/23 00:22:08;;;;;;;;;;;8.00;99.90;;;;;;5110265;28;20115;-70
2022/11/23 00:24:34;;;;;;;15.30;7.57;;;7.90;99.90;;;;;;5108276;28;19939;-70
2022/11/23 00:26:59;;;;;;;;;;;8.10;99.90;;;;;;5112246;28;20032;-70
2022/11/23 00:29:26;;;;;;;16.67;7.70;;;8.10;99.90;;;;;;5093982;28;19919;-69
2022/11/23 00:31:51;;;;;;;12.02;6.38;;;8.00;99.90;;;;;;5092326;28;20493;-68
2022/11/23 00:34:17;;;;;;;;;;;8.00;99.90;;;;;;5112329;28;20114;-68
2022/11/23 00:36:42;;;;;;;14.07;6.63;;;8.10;99.90;;;;;;5115308;28;19981;-69
2022/11/23 00:39:08;;;;;;;;;;;8.00;99.90;;;;;;5097329;28;20475;-69
2022/11/23 00:41:34;;;;;;;12.10;6.88;;;7.90;99.90;;;;;;5096935;28;19927;-69
2022/11/23 00:43:59;;;;;;;;;;;8.00;99.90;;;;;;5116362;28;20040;-69
2022/11/23 00:46:27;;;;;;;10.20;6.10;;;8.70;99.90;;;;;;5115440;28;20411;-69
2022/11/23 00:48:55;;;;;;;12.00;6.35;;;8.50;99.90;;;;;;5097392;28;20101;-69
2022/11/23 00:51:23;;;;;;;13.32;7.40;;;8.10;99.90;;;;;;5115258;28;20092;-69
2022/11/23 00:53:49;;;;;;;13.02;7.05;;;8.10;99.90;;;;;;5091987;28;20611;-69
2022/11/23 00:56:15;;;;;;;11.95;6.68;;;8.00;99.90;;;;;;5097484;28;20449;-69
2022/11/23 00:58:41;;;;;;;;;;;8.10;99.90;;;;;;5115371;28;20616;-69
2022/11/23 01:01:10;;;;;;;10.93;6.75;;;8.10;99.90;;;;;;5114441;28;19927;-69
2022/11/23 01:03:39;;;;;;;13.43;8.45;;;8.00;99.90;;;;;;5097095;28;20040;-69
2022/11/23 01:06:10;;;;;;;11.93;7.55;;;8.00;99.90;;;;;;5097305;28;20047;-68
2022/11/23 01:08:36;;;;;;;12.40;7.50;;;8.00;99.90;;;;;;5113981;28;20028;-68
2022/11/23 01:11:04;;;;;;;13.63;8.00;;;7.90;99.90;;;;;;5096854;28;20100;-68
2022/11/23 01:13:31;;;;;;;12.43;7.22;;;8.60;99.90;;;;;;5096900;28;20036;-69
2022/11/23 01:15:56;;;;;;;;;;;7.90;99.90;;;;;;5096511;28;20088;-69
2022/11/23 01:18:23;;;;;;;10.75;7.90;;;8.00;99.90;;;;;;5096967;28;19919;-69
2022/11/23 01:20:48;;;;;;;14.68;8.07;;;8.00;99.90;;;;;;5113855;28;20081;-69
2022/11/23 01:23:14;;;;;;;;;;;8.30;99.90;;;;;;5114707;28;20440;-69
2022/11/23 01:25:40;;;;;;;14.68;6.95;;;8.00;99.90;;;;;;5114510;28;19927;-69
2022/11/23 01:28:05;;;;;;;;;;;8.00;99.90;;;;;;5114874;28;20047;-69
2022/11/23 01:30:31;;;;;;;12.93;7.53;;;8.00;99.90;;;;;;5096740;28;19915;-69
2022/11/23 01:32:56;;;;;;;;;;;8.00;99.90;;;;;;5096970;28;20047;-69
2022/11/23 01:35:22;;;;;;;11.73;7.30;;;7.90;99.90;;;;;;5114099;28;19959;-69
2022/11/23 01:37:47;;;;;;;;;;;7.90;99.90;;;;;;5114736;28;20084;-69
2022/11/23 01:40:13;;;;;;;13.30;7.30;;;7.90;99.90;;;;;;5096629;28;20357;-68
2022/11/23 01:42:43;;;;;;;;;;;7.80;99.90;;;;;;5095650;28;20039;-69
2022/11/23 01:45:33;;;;;;;12.35;7.38;;;7.80;99.90;;;;;;5096622;28;19923;-69
2022/11/23 01:47:59;;;;;;;13.82;7.80;;;7.90;99.90;;;;;;5112864;28;20498;-69
2022/11/23 01:50:25;;;;;;;8.73;5.95;;;7.80;99.90;;;;;;5095885;28;20107;-69
2022/11/23 01:52:51;;;;;;;;;;;7.90;99.90;;;;;;5096141;28;20779;-69
2022/11/23 01:55:16;;;;;;;11.50;6.45;;;8.30;99.90;;;;;;5114165;28;19920;-69
2022/11/23 01:57:43;;;;;;;;;;;8.00;99.90;;;;;;5113638;28;20051;-69
2022/11/23 02:00:09;;;;;;;15.05;8.25;;;8.10;99.90;;;;;;5114693;28;20002;-69
2022/11/23 02:02:37;;;;;;;15.30;7.70;;;8.00;99.90;;;;;;5113875;28;20039;-69
2022/11/23 02:05:04;;;;;;;14.10;6.95;;;8.00;99.90;;;;;;5113628;28;20047;-69
2022/11/23 02:07:31;;;;;;;15.55;8.68;;;8.00;99.90;;;;;;5113676;28;20054;-69
2022/11/23 02:09:57;;;;;;;15.00;8.38;;;8.00;99.90;;;;;;5095576;28;20044;-69
2022/11/23 02:12:22;;;;;;;;;;;8.00;99.90;;;;;;5114380;28;20040;-69
2022/11/23 02:14:48;;;;;;;18.33;9.60;;;8.80;99.90;;;;;;5113629;28;19924;-69
2022/11/23 02:17:14;;;;;;;;;;;8.00;99.90;;;;;;5095676;28;20437;-69
2022/11/23 02:19:49;;;;;;;17.38;8.15;;;8.00;99.90;;;;;;5113917;28;19924;-69
2022/11/23 02:22:24;;;;;;;17.52;10.02;;;8.10;99.90;;;;;;5095736;28;20493;-69
2022/11/23 02:24:54;;;;;;;17.38;9.98;;;8.20;99.90;;;;;;5112738;28;20044;-69
2022/11/23 02:27:21;;;;;;;20.50;11.38;;;8.10;99.90;;;;;;5095818;28;20047;-69
2022/11/23 02:29:51;;;;;;;16.38;9.18;;;8.10;99.90;;;;;;5113233;28;20032;-70
2022/11/23 02:32:22;;;;;;;14.88;9.55;;;8.10;99.90;;;;;;5112768;28;20048;-69
2022/11/23 02:34:48;;;;;;;18.10;11.10;;;8.00;99.90;;;;;;5113392;28;20046;-69
2022/11/23 02:37:14;;;;;;;23.10;10.65;;;8.00;99.90;;;;;;5113551;28;20039;-69
2022/11/23 02:39:44;;;;;;;22.48;10.18;;;8.00;99.90;;;;;;5112156;28;20544;-70
2022/11/23 02:42:10;;;;;;;21.40;10.57;;;8.00;99.90;;;;;;5095700;28;20390;-70
2022/11/23 02:44:54;;;;;;;;;;;8.00;99.90;;;;;;5095165;28;20047;-70
2022/11/23 02:47:20;;;;;;;22.73;10.68;;;8.00;99.90;;;;;;5112738;28;20006;-70
2022/11/23 02:49:46;;;;;;;;;;;7.90;99.90;;;;;;5095119;28;20427;-70
2022/11/23 02:52:16;;;;;;;19.65;10.63;;;8.70;99.90;;;;;;5094353;28;19919;-70
2022/11/23 02:54:41;;;;;;;23.00;10.75;;;8.00;99.90;;;;;;5094811;28;20096;-70
2022/11/23 02:57:07;;;;;;;;;;;8.00;99.90;;;;;;5096081;28;20027;-70
2022/11/23 02:59:33;;;;;;;20.80;11.13;;;8.00;99.90;;;;;;5092502;28;20367;-70
2022/11/23 03:01:59;;;;;;;;;;;8.00;99.90;;;;;;5113678;28;20039;-70
2022/11/23 03:04:25;;;;;;;24.30;12.63;;;8.10;99.90;;;;;;5094899;28;19919;-70
2022/11/23 03:06:50;;;;;;;;;;;8.10;99.90;;;;;;5094110;28;20096;-70
2022/11/23 03:09:19;;;;;;;22.55;13.18;;;8.10;99.90;;;;;;5113101;28;20271;-70
2022/11/23 03:11:44;;;;;;;21.40;12.23;;;9.70;99.90;;;;;;5094732;28;20043;-69
2022/11/23 03:14:10;;;;;;;;;;;8.00;99.90;;;;;;5112424;28;20505;-70
2022/11/23 03:16:36;;;;;;;21.60;12.45;;;8.00;99.90;;;;;;5094228;28;19969;-70
2022/11/23 03:19:02;;;;;;;;;;;8.00;99.90;;;;;;5095306;28;20036;-70
2022/11/23 03:21:28;;;;;;;24.20;13.82;;;8.10;99.90;;;;;;5110776;28;19919;-70
2022/11/23 03:23:54;;;;;;;;;;;8.10;99.90;;;;;;5094908;28;20040;-70
2022/11/23 03:26:19;;;;;;;23.52;12.60;;;8.10;99.90;;;;;;5112610;28;19973;-70
2022/11/23 03:28:45;;;;;;;;;;;8.10;99.90;;;;;;5093031;28;20063;-70
2022/11/23 03:31:11;;;;;;;26.08;13.82;;;8.10;99.90;;;;;;5094832;28;19923;-70
2022/11/23 03:33:37;;;;;;;;;;;8.10;99.90;;;;;;5112502;28;20511;-70
2022/11/23 03:36:03;;;;;;;28.80;14.27;;;8.10;99.90;;;;;;5093482;28;19920;-69
2022/11/23 03:38:28;;;;;;;;;;;8.10;99.90;;;;;;5108888;28;20039;-70
2022/11/23 03:40:54;;;;;;;26.27;14.07;;;8.10;99.90;;;;;;5102031;28;20068;-70
2022/11/23 03:43:20;;;;;;;;;;;8.10;99.90;;;;;;5093769;28;20044;-69
2022/11/23 03:45:45;;;;;;;26.38;14.00;;;8.10;99.90;;;;;;5112241;28;19919;-70
2022/11/23 03:48:11;;;;;;;;;;;8.10;99.90;;;;;;5094794;28;20044;-70
2022/11/23 03:50:37;;;;;;;30.48;12.73;;;8.00;99.90;;;;;;5092836;28;20009;-70
2022/11/23 03:53:02;;;;;;;;;;;8.00;99.90;;;;;;5094514;28;20470;-70
2022/11/23 03:55:31;;;;;;;25.13;14.20;;;8.00;99.90;;;;;;5092936;28;19919;-70
2022/11/23 03:57:58;;;;;;;26.10;14.65;;;8.00;99.90;;;;;;5112329;28;20054;-70
2022/11/23 04:00:25;;;;;;;24.55;12.63;;;9.70;99.90;;;;;;5111619;28;20039;-70
2022/11/23 04:02:50;;;;;;;27.98;14.50;;;7.90;99.90;;;;;;5107585;28;20479;-68
2022/11/23 04:05:16;;;;;;;;;;;7.90;99.90;;;;;;5112454;28;20043;-68
2022/11/23 04:07:42;;;;;;;23.83;13.77;;;8.00;99.90;;;;;;5112005;28;19927;-71
2022/11/23 04:10:07;;;;;;;;;;;8.00;99.90;;;;;;5093215;28;20043;-70
2022/11/23 04:12:33;;;;;;;23.20;13.23;;;8.00;99.90;;;;;;5093399;28;19919;-68
2022/11/23 04:14:58;;;;;;;;;;;8.00;99.90;;;;;;5094550;28;20036;-73
2022/11/23 04:17:24;;;;;;;27.25;14.68;;;7.90;99.90;;;;;;5110852;28;19972;-70
2022/11/23 04:19:49;;;;;;;;;;;8.00;99.90;;;;;;5111879;28;20479;-70
2022/11/23 04:22:15;;;;;;;27.50;13.65;;;8.00;99.90;;;;;;5093262;28;19920;-70
2022/11/23 04:24:40;;;;;;;;;;;7.90;99.90;;;;;;5111399;28;20035;-69
2022/11/23 04:27:06;;;;;;;26.33;13.00;;;8.00;99.90;;;;;;5111392;28;19931;-70
2022/11/23 04:29:31;;;;;;;;;;;8.30;99.90;;;;;;5093887;28;20035;-68
2022/11/23 04:31:57;;;;;;;22.15;14.27;;;8.00;99.90;;;;;;5093204;28;19926;-68
2022/11/23 04:34:23;;;;;;;;;;;8.00;99.90;;;;;;5094035;28;20118;-68
2022/11/23 04:36:48;;;;;;;29.58;13.75;;;7.90;99.90;;;;;;5111307;28;20397;-69
2022/11/23 04:39:14;;;;;;;;;;;7.90;99.90;;;;;;5111041;28;20039;-69
2022/11/23 04:41:39;;;;;;;22.90;12.27;;;7.90;99.90;;;;;;5093547;28;20357;-70
2022/11/23 04:44:05;;;;;;;;;;;7.90;99.90;;;;;;5112216;28;20516;-70
2022/11/23 04:46:31;;;;;;;23.77;12.77;;;8.20;99.90;;;;;;5110516;28;19920;-70
2022/11/23 04:48:56;;;;;;;;;;;8.00;99.90;;;;;;5112077;28;20055;-70
2022/11/23 04:51:22;;;;;;;23.05;12.35;;;8.00;99.90;;;;;;5111643;28;19923;-70
2022/11/23 04:53:47;;;;;;;;;;;8.00;99.90;;;;;;5111125;28;20109;-69
2022/11/23 04:56:13;;;;;;;26.77;12.27;;;8.40;99.90;;;;;;5093236;28;19972;-70
2022/11/23 04:58:39;;;;;;;;;;;8.00;99.90;;;;;;5092373;28;20569;-70
2022/11/23 05:01:05;;;;;;;22.17;12.65;;;7.80;99.90;;;;;;5111875;28;19969;-70
2022/11/23 05:03:33;;;;;;;23.63;12.95;;;8.00;99.90;;;;;;5092981;28;20436;-70
2022/11/23 05:06:00;;;;;;;24.55;12.45;;;9.50;99.90;;;;;;5110829;28;20044;-68
2022/11/23 05:08:25;;;;;;;27.33;13.85;;;7.80;99.90;;;;;;5111640;28;20046;-68
2022/11/23 05:10:51;;;;;;;;;;;7.70;99.90;;;;;;5093720;28;20036;-68
2022/11/23 05:13:17;;;;;;;24.77;12.85;;;7.90;99.90;;;;;;5092310;28;19920;-68
2022/11/23 05:15:42;;;;;;;;;;;7.80;99.90;;;;;;5111800;28;20035;-68
2022/11/23 05:18:09;;;;;;;19.80;11.27;;;7.70;99.90;;;;;;5111349;28;20454;-69
2022/11/23 05:20:35;;;;;;;23.95;12.57;;;7.70;99.90;;;;;;5092492;28;20031;-69
2022/11/23 05:23:00;;;;;;;;;;;7.80;99.90;;;;;;5113449;28;20039;-69
2022/11/23 05:25:26;;;;;;;24.35;13.02;;;7.90;99.90;;;;;;5097106;28;20372;-69
2022/11/23 05:27:52;;;;;;;;;;;7.80;99.90;;;;;;5096528;28;20042;-69
2022/11/23 05:30:18;;;;;;;28.88;13.00;;;7.70;99.90;;;;;;5096510;28;19919;-69
2022/11/23 05:32:44;;;;;;;20.08;11.00;;;7.80;99.90;;;;;;5096119;28;20035;-69
2022/11/23 05:35:10;;;;;;;;;;;7.80;99.90;;;;;;5096441;28;20047;-69
2022/11/23 05:37:36;;;;;;;24.77;12.55;;;7.70;99.90;;;;;;5096086;28;20443;-69
2022/11/23 05:40:03;;;;;;;23.85;12.80;;;7.70;99.90;;;;;;5113910;28;20402;-69
2022/11/23 05:42:37;;;;;;;26.05;12.43;;;7.60;99.90;;;;;;5095175;28;20091;-69
2022/11/23 05:45:04;;;;;;;22.30;11.85;;;7.70;99.90;;;;;;5111283;28;20457;-70
2022/11/23 05:47:29;;;;;;;22.40;12.38;;;7.70;99.90;;;;;;5096066;28;20055;-69
2022/11/23 05:49:55;;;;;;;;;;;7.70;99.90;;;;;;5114689;28;20055;-68
2022/11/23 05:52:20;;;;;;;21.15;11.02;;;8.10;99.90;;;;;;5096416;28;20371;-67
2022/11/23 05:54:46;;;;;;;;;;;7.90;99.90;;;;;;5096455;28;20048;-67
2022/11/23 05:57:14;;;;;;;27.23;14.73;;;7.80;99.90;;;;;;5113304;28;19920;-67
2022/11/23 05:59:40;;;;;;;25.20;12.73;;;7.80;99.90;;;;;;5095659;28;20056;-67
2022/11/23 06:02:05;;;;;;;;;;;8.50;99.90;;;;;;5113336;28;20429;-67
2022/11/23 06:04:31;;;;;;;24.60;12.48;;;7.80;99.90;;;;;;5095554;28;19923;-72
2022/11/23 06:06:59;;;;;;;;;;;7.80;99.90;;;;;;5114561;28;20042;-71
2022/11/23 06:09:26;;;;;;;26.10;13.10;;;8.10;99.90;;;;;;5109672;28;20360;-70
2022/11/23 06:11:52;;;;;;;27.33;13.30;;;8.50;99.90;;;;;;5094104;28;20372;-68
2022/11/23 06:14:17;;;;;;;;;;;7.90;99.90;;;;;;5112620;28;20093;-70
2022/11/23 06:16:43;;;;;;;26.10;13.95;;;7.90;99.90;;;;;;5112567;28;19946;-69
2022/11/23 06:19:08;;;;;;;;;;;7.80;99.90;;;;;;5114290;28;20122;-69
2022/11/23 06:21:34;;;;;;;26.83;14.18;;;7.80;99.90;;;;;;5095949;28;19919;-68
2022/11/23 06:23:59;;;;;;;;;;;8.10;99.90;;;;;;5113712;28;20043;-67
2022/11/23 06:26:25;;;;;;;27.90;14.65;;;8.60;99.90;;;;;;5095812;28;19920;-73
2022/11/23 06:28:51;;;;;;;;;;;7.90;99.90;;;;;;5109417;28;20039;-70
2022/11/23 06:31:17;;;;;;;28.63;15.75;;;8.00;99.90;;;;;;5112422;28;20435;-71
2022/11/23 06:33:45;;;;;;;;;;;8.00;99.90;;;;;;5113683;28;20043;-70
2022/11/23 06:36:11;;;;;;;28.20;14.30;;;7.90;99.90;;;;;;5095664;28;19920;-70
2022/11/23 06:38:37;;;;;;;;;;;7.90;99.90;;;;;;5113194;28;20536;-71
2022/11/23 06:41:03;;;;;;;30.08;15.38;;;7.80;99.90;;;;;;5113968;28;19964;-68
2022/11/23 06:43:29;;;;;;;27.75;13.65;;;7.80;99.90;;;;;;5095284;28;20047;-70
2022/11/23 06:45:55;;;;;;;;;;;7.90;99.90;;;;;;5113293;28;20043;-76
2022/11/23 06:48:21;;;;;;;27.77;12.57;;;7.90;99.90;;;;;;5094049;28;20371;-70
2022/11/23 06:50:46;;;;;;;;;;;8.00;99.90;;;;;;5093542;28;20135;-71
2022/11/23 06:53:12;;;;;;;27.35;13.90;;;8.00;99.90;;;;;;5111566;28;19971;-73
2022/11/23 06:55:38;;;;;;;;;;;7.90;99.90;;;;;;5093987;28;20526;-73
2022/11/23 06:58:06;;;;;;;23.80;12.35;;;8.30;99.90;;;;;;5111096;28;19924;-73
2022/11/23 07:00:32;;;;;;;27.27;13.98;;;8.10;99.90;;;;;;5111155;28;20131;-71
2022/11/23 07:02:59;;;;;;;27.38;13.82;;;7.90;99.90;;;;;;5093751;28;20523;-69
2022/11/23 07:05:26;;;;;;;24.00;12.38;;;8.00;99.90;;;;;;5110249;28;20043;-70
2022/11/23 07:07:54;;;;;;;23.30;12.35;;;8.00;99.90;;;;;;5111253;28;20036;-83
2022/11/23 07:10:19;;;;;;;;;;;8.00;99.90;;;;;;5111939;28;20046;-83
2022/11/23 07:12:45;;;;;;;24.90;12.13;;;8.00;99.90;;;;;;5104838;28;19970;-81
2022/11/23 07:15:11;;;;;;;;;;;8.00;99.90;;;;;;5089882;28;20089;-80
2022/11/23 07:17:40;;;;;;;20.30;11.13;;;8.30;99.90;;;;;;5091898;28;19920;-81
2022/11/23 07:20:10;;;;;;;28.20;11.85;;;7.90;99.90;;;;;;5110048;28;20040;-80
2022/11/23 07:22:36;;;;;;;21.52;11.00;;;8.00;99.90;;;;;;5110910;28;20032;-80
2022/11/23 07:25:02;;;;;;;;;;;7.90;99.90;;;;;;5094308;28;20039;-81
2022/11/23 07:27:27;;;;;;;21.27;10.90;;;8.00;99.90;;;;;;5093137;28;19920;-82
2022/11/23 07:29:53;;;;;;;;;;;8.00;99.90;;;;;;5095093;28;20048;-80
2022/11/23 07:32:18;;;;;;;19.48;10.27;;;8.00;99.90;;;;;;5095085;28;20019;-81
2022/11/23 07:34:44;;;;;;;;;;;8.10;99.90;;;;;;5111260;28;20081;-81
2022/11/23 07:37:15;;;;;;;16.73;9.50;;;8.10;99.90;;;;;;5090695;28;19923;-81
2022/11/23 07:39:41;;;;;;;20.27;10.63;;;8.00;99.90;;;;;;5108301;28;20118;-81
2022/11/23 07:42:07;;;;;;;;;;;8.00;99.90;;;;;;5112254;28;20074;-81
2022/11/23 07:44:35;;;;;;;19.58;10.07;;;8.10;99.90;;;;;;5093472;28;19935;-81
2022/11/23 07:47:01;;;;;;;17.88;9.95;;;8.00;99.90;;;;;;5093388;28;20079;-80
2022/11/23 07:49:26;;;;;;;;;;;8.00;99.90;;;;;;5112243;28;20074;-79
2022/11/23 07:51:53;;;;;;;20.63;9.70;;;7.90;99.90;;;;;;5111631;28;19924;-79
2022/11/23 07:54:18;;;;;;;19.40;9.13;;;7.90;99.90;;;;;;5112384;28;20047;-81
2022/11/23 07:56:44;;;;;;;;;;;7.90;99.90;;;;;;5093420;28;20067;-80
2022/11/23 07:59:09;;;;;;;18.52;8.52;;;8.30;99.90;;;;;;5111672;28;19919;-80
2022/11/23 08:01:35;;;;;;;;;;;8.00;99.90;;;;;;5107280;28;20089;-81
2022/11/23 08:04:01;;;;;;;17.90;8.52;;;8.30;99.90;;;;;;5112484;28;20359;-80
2022/11/23 08:06:27;;;;;;;18.33;9.05;;;8.00;99.90;;;;;;5111704;28;20067;-80
2022/11/23 08:08:54;;;;;;;17.35;7.90;;;7.90;99.90;;;;;;5110634;28;20047;-79
2022/11/23 08:11:25;;;;;;;16.52;7.65;;;8.00;99.90;;;;;;5112236;28;20118;-79
2022/11/23 08:13:51;;;;;;;16.33;8.57;;;8.00;99.90;;;;;;5093768;28;20126;-80
2022/11/23 08:16:17;;;;;;;;;;;8.10;99.90;;;;;;5112308;28;20123;-79
2022/11/23 08:18:46;;;;;;;18.02;8.30;;;8.10;99.90;;;;;;5111474;28;19920;-79
2022/11/23 08:21:11;;;;;;;15.20;7.53;;;8.10;99.90;;;;;;5094051;28;20414;-80
2022/11/23 08:23:37;;;;;;;;;;;8.20;99.90;;;;;;5111408;28;20032;-80
2022/11/23 08:26:03;;;;;;;14.40;7.80;;;8.10;99.90;;;;;;5111544;28;19919;-80
2022/11/23 08:28:29;;;;;;;14.88;7.18;;;8.10;99.90;;;;;;5111686;28;20089;-79
2022/11/23 08:30:54;;;;;;;;;;;8.10;99.90;;;;;;5093944;28;20417;-80
2022/11/23 08:33:20;;;;;;;12.60;6.82;;;8.10;99.90;;;;;;5094021;28;20419;-80
2022/11/23 08:35:45;;;;;;;;;;;8.30;99.90;;;;;;5093643;28;20043;-78
2022/11/23 08:38:11;;;;;;;11.13;6.18;;;8.20;99.90;;;;;;5111515;28;19920;-82
2022/11/23 08:40:37;;;;;;;;;;;8.30;99.90;;;;;;5111516;28;20035;-80
2022/11/23 08:43:03;;;;;;;17.20;8.23;;;8.30;99.90;;;;;;5112176;28;19927;-80
2022/11/23 08:45:29;;;;;;;12.32;6.82;;;8.30;99.90;;;;;;5088245;28;20078;-76
2022/11/23 08:47:59;;;;;;;;;;;8.30;99.90;;;;;;5094589;28;20500;-81
2022/11/23 08:50:25;;;;;;;16.30;7.10;;;8.50;99.90;;;;;;5093884;28;19919;-74
2022/11/23 08:52:54;;;;;;;;;;;8.70;99.90;;;;;;5111352;28;20506;-81
2022/11/23 08:55:20;;;;;;;13.75;7.32;;;8.80;99.90;;;;;;5111599;28;19920;-75
2022/11/23 08:57:46;;;;;;;;;;;9.70;99.90;;;;;;5094255;28;20471;-76
2022/11/23 09:00:12;;;;;;;18.15;7.57;;;8.90;99.90;;;;;;5097306;28;19924;-84
2022/11/23 09:02:37;;;;;;;14.55;7.68;;;8.90;99.90;;;;;;5115582;28;20516;-84
2022/11/23 09:05:05;;;;;;;;;;;9.00;99.90;;;;;;5115560;28;20071;-84
2022/11/23 09:07:31;;;;;;;16.15;7.10;;;8.80;99.90;;;;;;5096668;28;20371;-84
2022/11/23 09:09:57;;;;;;;;;;;8.70;99.90;;;;;;5116547;28;20031;-83
2022/11/23 09:12:22;;;;;;;15.25;7.22;;;8.70;99.90;;;;;;5114379;28;19919;-80
2022/11/23 09:14:48;;;;;;;;;;;8.80;99.90;;;;;;5116054;28;20048;-87
2022/11/23 09:17:13;;;;;;;17.70;6.95;;;9.00;99.90;;;;;;5116023;28;19963;-86
2022/11/23 09:19:39;;;;;;;;;;;8.80;99.90;;;;;;5114360;28;20441;-86
2022/11/23 09:22:04;;;;;;;14.15;6.72;;;8.80;99.90;;;;;;5115363;28;19923;-87
2022/11/23 09:24:30;;;;;;;;;;;8.80;99.90;;;;;;5114780;28;20047;-86
2022/11/23 09:26:56;;;;;;;16.60;7.65;;;8.80;99.90;;;;;;5096974;28;20347;-87
2022/11/23 09:29:21;;;;;;;;;;;8.80;99.90;;;;;;5097379;28;20043;-87
2022/11/23 09:31:47;;;;;;;14.10;7.15;;;9.00;99.90;;;;;;5115266;28;20222;-86
2022/11/23 09:34:13;;;;;;;;;;;9.00;99.90;;;;;;5115128;28;20047;-86
2022/11/23 09:36:41;;;;;;;16.55;7.57;;;9.50;99.90;;;;;;5114506;28;19926;-86
2022/11/23 09:39:07;;;;;;;16.50;7.65;;;8.80;99.90;;;;;;5115621;28;20039;-86
2022/11/23 09:41:51;;;;;;;;;;;9.10;99.90;;;;;;5096705;28;20498;-86
2022/11/23 09:44:26;;;;;;;17.52;7.22;;;8.90;99.90;;;;;;5115276;28;19926;-87
2022/11/23 09:47:02;;;;;;;15.30;7.13;;;8.80;99.90;;;;;;5115221;28;20040;-86
2022/11/23 09:49:55;;;;;;;16.65;7.85;;;9.90;99.90;;;;;;5111897;28;20055;-85
2022/11/23 09:52:23;;;;;;;14.07;7.35;;;9.10;99.90;;;;;;5111914;28;20039;-86
2022/11/23 09:54:54;;;;;;;14.60;6.80;;;9.30;99.90;;;;;;5110210;28;20035;-86
2022/11/23 09:57:26;;;;;;;12.68;7.18;;;9.50;99.90;;;;;;5111734;28;20039;-86
2022/11/23 09:59:54;;;;;;;14.52;7.07;;;9.70;99.90;;;;;;5093218;28;20093;-86
2022/11/23 10:02:23;;;;;;;16.20;6.45;;;9.90;99.90;;;;;;5114056;28;20479;-86
2022/11/23 10:04:51;;;;;;;16.75;6.70;;;9.90;99.90;;;;;;5096564;28;20080;-86
2022/11/23 10:07:16;;;;;;;12.95;5.90;;;9.90;99.90;;;;;;5093060;28;20120;-86
2022/11/23 10:10:01;;;;;;;;;;;9.90;99.90;;;;;;5114113;28;20508;-87
2022/11/23 10:12:49;;;;;;;12.15;5.43;;;9.70;99.90;;;;;;5112469;28;19919;-87
2022/11/23 10:15:25;;;;;;;14.18;5.60;;;9.60;99.90;;;;;;5110249;28;20119;-87
2022/11/23 10:18:02;;;;;;;14.27;5.75;;;9.50;99.90;;;;;;5111580;28;20093;-87
2022/11/23 10:20:46;;;;;;;;;;;9.30;99.90;;;;;;5096881;28;20062;-86
2022/11/23 10:23:34;;;;;;;12.50;5.32;;;9.30;99.90;;;;;;5110691;28;19923;-88
2022/11/23 10:26:00;;;;;;;11.95;4.45;;;9.40;99.90;;;;;;5095650;28;20071;-87
2022/11/23 10:28:27;;;;;;;;;;;9.50;99.90;;;;;;5121028;28;20042;-84
2022/11/23 10:31:19;;;;;;;;;;;9.80;99.90;;;;;;5103319;28;20443;-81
2022/11/23 10:34:00;;;;;;;15.00;4.50;;;10.00;99.90;;;;;;5110398;28;20010;-83
2022/11/23 10:36:25;;;;;;;11.73;3.78;;;10.00;99.90;;;;;;5095051;28;20115;-83
2022/11/23 10:38:54;;;;;;;;;;;10.00;99.90;;;;;;5095960;28;20192;-80
2022/11/23 10:41:19;;;;;;;10.00;3.90;;;10.20;99.90;;;;;;5113603;28;20010;-80
2022/11/23 10:43:48;;;;;;;;;;;10.10;99.90;;;;;;5113867;28;20165;-86
2022/11/23 10:46:32;;;;;;;14.32;4.03;;;10.50;99.90;;;;;;5113997;28;19920;-85
2022/11/23 10:49:23;;;;;;;15.27;5.32;;;11.10;99.90;;;;;;5096017;28;20043;-87
2022/11/23 10:52:24;;;;;;;11.02;3.88;;;12.00;99.90;;;;;;5093020;28;20054;-87
2022/11/23 10:54:55;;;;;;;7.57;3.08;;;12.60;99.90;;;;;;5111006;28;20452;-83
2022/11/23 10:57:27;;;;;;;7.82;2.65;;;13.50;99.90;;;;;;5095319;28;20043;-84
2022/11/23 11:00:20;;;;;;;6.38;2.80;;;14.10;99.90;;;;;;5113534;28;20142;-86
2022/11/23 11:02:49;;;;;;;8.23;2.47;;;14.90;99.90;;;;;;5090428;28;20043;-86
2022/11/23 11:05:31;;;;;;;9.95;3.00;;;15.50;99.90;;;;;;5094697;28;20048;-85
2022/11/23 11:08:00;;;;;;;9.10;2.65;;;15.80;99.90;;;;;;5113526;28;20046;-85
2022/11/23 11:10:48;;;;;;;9.55;3.33;;;16.00;99.90;;;;;;5095235;28;20486;-81
2022/11/23 11:13:42;;;;;;;8.27;2.63;;;16.10;99.90;;;;;;5091902;28;20051;-79
2022/11/23 11:16:16;;;;;;;9.88;3.10;;;16.10;99.90;;;;;;5109528;28;20035;-82
2022/11/23 11:18:42;;;;;;;9.98;2.45;;;16.00;99.90;;;;;;5108904;28;20126;-82
2022/11/23 11:21:39;;;;;;;6.85;2.30;;;16.10;99.90;;;;;;5111494;28;20130;-84
2022/11/23 11:24:15;;;;;;;13.25;3.00;;;16.20;99.90;;;;;;5109526;28;20135;-82
2022/11/23 11:26:52;;;;;;;10.85;2.55;;;16.20;99.90;;;;;;5107285;28;20136;-84
2022/11/23 11:29:51;;;;;;;7.90;2.58;;;16.20;99.90;;;;;;5095631;28;20616;-82
2022/11/23 11:32:28;;;;;;;10.35;2.45;;;16.40;99.90;;;;;;5110460;28;20036;-83
2022/11/23 11:35:24;;;;;;;;;;;16.20;99.90;;;;;;5094563;28;20047;-83
2022/11/23 11:37:53;;;;;;;9.23;2.35;;;15.50;99.90;;;;;;5111241;28;19973;-80
2022/11/23 11:40:33;;;;;;;8.88;2.80;;;16.20;99.90;;;;;;5092933;28;20055;-80
2022/11/23 11:43:11;;;;;;;8.35;2.35;;;13.60;99.90;;;;;;5090863;28;20062;-80
2022/11/23 11:45:43;;;;;;;5.95;1.85;;;12.90;99.90;;;;;;5109343;28;20040;-80
2022/11/23 11:48:12;;;;;;;10.82;3.97;;;12.50;99.90;;;;;;5092500;28;20486;-81
2022/11/23 11:50:50;;;;;;;8.23;2.28;;;12.70;99.90;;;;;;5093823;28;20051;-82
2022/11/23 11:53:37;;;;;;;10.23;2.60;;;13.80;99.90;;;;;;5112682;28;20048;-81
2022/11/23 11:56:17;;;;;;;6.47;2.20;;;15.00;99.90;;;;;;5109056;28;20043;-82
2022/11/23 11:58:54;;;;;;;9.75;1.98;;;15.50;99.90;;;;;;5112157;28;20067;-82
2022/11/23 12:01:27;;;;;;;;;;;15.60;99.90;;;;;;5111991;28;20097;-81
2022/11/23 12:04:04;;;;;;;5.50;1.70;;;15.30;99.90;;;;;;5112068;28;19938;-81
2022/11/23 12:06:40;;;;;;;9.32;2.30;;;15.20;99.90;;;;;;5108530;28;20043;-79
2022/11/23 12:09:15;;;;;;;8.45;2.42;;;15.00;99.90;;;;;;5099491;28;20044;-80
2022/11/23 12:11:41;;;;;;;12.85;2.92;;;13.70;99.90;;;;;;5112446;28;20054;-82
2022/11/23 12:14:13;;;;;;;8.43;2.63;;;13.30;99.90;;;;;;5111937;28;20027;-81
2022/11/23 12:17:41;;;;;;;12.05;2.33;;;14.30;99.90;;;;;;5110742;28;20497;-81
2022/11/23 12:20:28;;;;;;;8.57;2.83;;;15.20;99.90;;;;;;5029519;28;20231;-80
2022/11/23 12:23:01;;;;;;;7.47;1.95;;;15.90;99.90;;;;;;5008830;28;20292;-84
2022/11/23 12:25:40;;;;;;;12.45;2.45;;;15.60;99.90;;;;;;5089887;28;20054;-80
2022/11/23 12:28:33;;;;;;;5.97;1.73;;;15.30;99.90;;;;;;5094178;28;20055;-79
2022/11/23 12:31:21;;;;;;;9.75;2.42;;;15.00;99.90;;;;;;5090796;28;20055;-79
2022/11/23 12:34:22;;;;;;;9.07;2.00;;;15.00;99.90;;;;;;5116791;28;20035;-80
2022/11/23 12:36:57;;;;;;;9.20;2.40;;;14.90;99.90;;;;;;5115910;28;20138;-82
2022/11/23 12:39:43;;;;;;;8.18;2.17;;;15.00;99.90;;;;;;5117428;28;20455;-80
2022/11/23 12:42:25;;;;;;;7.72;2.45;;;15.20;99.90;;;;;;5083588;28;20047;-79
2022/11/23 12:45:14;;;;;;;7.22;1.58;;;15.40;99.90;;;;;;5112079;28;20048;-80
2022/11/23 12:48:01;;;;;;;5.75;1.70;;;15.10;99.90;;;;;;5114689;28;20061;-80
2022/11/23 12:50:38;;;;;;;;;;;15.00;99.90;;;;;;5089195;28;20488;-80
2022/11/23 12:53:19;;;;;;;7.07;1.90;;;14.70;99.90;;;;;;5109617;28;19927;-80
2022/11/23 12:55:53;;;;;;;11.52;2.08;;;14.90;99.90;;;;;;5104745;28;20040;-81
2022/11/23 12:58:22;;;;;;;6.30;1.60;;;14.80;99.90;;;;;;5111028;28;20062;-79
2022/11/23 13:01:01;;;;;;;8.98;2.10;;;14.90;99.90;;;;;;5092416;28;20410;-77
2022/11/23 13:03:48;;;;;;;7.43;1.88;;;14.70;99.90;;;;;;5112707;28;20055;-75
2022/11/23 13:06:56;;;;;;;9.20;2.22;;;14.50;99.90;;;;;;5109446;28;20042;-80
2022/11/23 13:09:47;;;;;;;10.20;2.20;;;14.10;99.90;;;;;;5112037;28;20040;-77
2022/11/23 13:12:38;;;;;;;8.55;2.25;;;13.30;99.90;;;;;;5089839;28;20043;-76
2022/11/23 13:15:31;;;;;;;7.65;2.50;;;12.70;99.90;;;;;;5088610;28;20046;-75
2022/11/23 13:18:35;;;;;;;8.65;1.92;;;12.10;99.90;;;;;;5090448;28;20075;-77
2022/11/23 13:21:16;;;;;;;8.60;2.40;;;11.70;99.90;;;;;;5090944;28;20059;-78
2022/11/23 13:23:42;;;;;;;9.02;2.10;;;11.50;99.90;;;;;;5108463;28;20040;-77
2022/11/23 13:26:18;;;;;;;;;;;11.60;99.90;;;;;;5111899;28;20036;-81